Wedge Too — ZCII — position and weather

sailwx.info

Track history (hours):
 
Tides and Currents Weather Stations Pressure Air Temp Water Temp Dewpoint Dewpoint Depression Visibility Wind Speed Wind Dir Waves Ship Positions

Wedge Too

Last reported at 2014-Sep-15 07:27 UTC. Time now 2014-Sep-16 21:35 UTC.
Position N 40°48' E 001°59'.

Length 65 m; draft 3.4 m.

Type: Pleasure craft. MMSI: 319861000.

Date/timePositionNaut miles runAvg speedWind from/ knotsBaromVisibWave heightAir tempDewpointWater temp
2014-Sep-15 07:27N 40°48' E 001°59'122 9.5
2014-Sep-14 18:33N 38°51' E 001°15'10 4.0
2014-Sep-14 16:09N 38°47' E 001°26'2 0.1
2014-Sep-13 21:04N 38°45' E 001°27'0 0.0
2014-Sep-13 17:33N 38°45' E 001°27'2 0.8
2014-Sep-13 15:33N 38°44' E 001°29'3 2.2
2014-Sep-13 14:12N 38°41' E 001°31'0 0.0
2014-Sep-13 13:23N 38°41' E 001°31'0 0.0
2014-Sep-13 12:33N 38°41' E 001°31'0 0.0
2014-Sep-13 11:32N 38°41' E 001°31'0 0.0
2014-Sep-13 10:33N 38°41' E 001°31'4 4.0
2014-Sep-13 09:33N 38°40' E 001°36'1111.0
2014-Sep-13 08:33N 38°40' E 001°22'1312.9
2014-Sep-13 07:33N 38°52' E 001°26'2 0.9
2014-Sep-13 05:29N 38°54' E 001°26'0 0.0
2014-Sep-13 04:23N 38°54' E 001°26'0 0.0
2014-Sep-13 03:29N 38°54' E 001°26'0 0.0
2014-Sep-12 19:29N 38°54' E 001°26'0 0.0
2014-Sep-12 10:23N 38°54' E 001°26'0 0.0
2014-Sep-12 08:29N 38°54' E 001°26'1 0.5
2014-Sep-12 06:32N 38°54' E 001°27'1111.4
2014-Sep-12 05:33N 38°60' E 001°39'1413.6
2014-Sep-12 04:33N 39°08' E 001°54'1313.3
2014-Sep-12 03:33N 39°15' E 002°08'1313.3
2014-Sep-12 02:33N 39°22' E 002°22'1313.2
2014-Sep-12 01:33N 39°29' E 002°37'4 4.2
2014-Sep-12 00:33N 39°33' E 002°40'0 0.0
2014-Sep-11 23:33N 39°33' E 002°40'0 0.0
2014-Sep-11 22:33N 39°33' E 002°40'0 0.0
2014-Sep-11 21:33N 39°33' E 002°40'0 0.0
2014-Sep-11 20:33N 39°33' E 002°40'0 0.0
2014-Sep-11 19:33N 39°33' E 002°40'0 0.0
2014-Sep-11 18:33N 39°33' E 002°40'1 1.3
2014-Sep-11 17:34N 39°32' E 002°39'10 9.8
2014-Sep-11 16:33N 39°27' E 002°28'1312.7
2014-Sep-11 15:33N 39°37' E 002°18'1414.3
2014-Sep-11 14:33N 39°48' E 002°30'1414.2
2014-Sep-11 13:33N 39°58' E 002°43'1413.9
2014-Sep-11 12:33N 40°08' E 002°55'1413.9
2014-Sep-11 11:33N 40°19' E 003°07'1514.5
2014-Sep-11 10:33N 40°30' E 003°20'13214.4
2014-Sep-11 01:23N 42°04' E 005°22'1113.5
2014-Sep-11 00:33N 42°13' E 005°32'1514.4
2014-Sep-10 23:32N 42°24' E 005°44'1514.5
2014-Sep-10 22:29N 42°36' E 005°58'1314.4
2014-Sep-10 21:33N 42°45' E 006°11'1515.0
2014-Sep-10 20:32N 42°57' E 006°24'1414.6
2014-Sep-10 19:33N 43°06' E 006°39'1514.8
2014-Sep-10 18:34N 43°17' E 006°52'1514.8
2014-Sep-10 17:33N 43°28' E 007°06'1414.5
2014-Sep-10 16:33N 43°39' E 007°20'7 0.2
2014-Sep-09 02:12N 43°44' E 007°25'0 0.0
2014-Sep-08 01:21N 43°44' E 007°25'0 0.0
2014-Sep-07 16:27N 43°44' E 007°25'0 0.0
2014-Sep-06 23:29N 43°44' E 007°25'0 0.0
2014-Sep-06 14:14N 43°44' E 007°25'0 0.0
2014-Sep-06 13:32N 43°44' E 007°25'  
Track history (hours):
 
Tides and Currents Weather Stations Pressure Air Temp Water Temp Dewpoint Dewpoint Depression Visibility Wind Speed Wind Dir Waves Ship Positions

Wedge Too

Last reported at 2014-Sep-15 07:27 UTC. Time now 2014-Sep-16 21:35 UTC.
Position N 40°48' E 001°59'.

Length 65 m; draft 3.4 m.

Type: Pleasure craft. MMSI: 319861000.

Date/timePositionNaut miles runAvg speedWind from/ knotsBaromVisibWave heightAir tempDewpointWater temp
2014-Sep-15 07:27N 40°48' E 001°59'122 9.5
2014-Sep-14 18:33N 38°51' E 001°15'10 4.0
2014-Sep-14 16:09N 38°47' E 001°26'2 0.1
2014-Sep-13 21:04N 38°45' E 001°27'0 0.0
2014-Sep-13 17:33N 38°45' E 001°27'2 0.8
2014-Sep-13 15:33N 38°44' E 001°29'3 2.2
2014-Sep-13 14:12N 38°41' E 001°31'0 0.0
2014-Sep-13 13:23N 38°41' E 001°31'0 0.0
2014-Sep-13 12:33N 38°41' E 001°31'0 0.0
2014-Sep-13 11:32N 38°41' E 001°31'0 0.0
2014-Sep-13 10:33N 38°41' E 001°31'4 4.0
2014-Sep-13 09:33N 38°40' E 001°36'1111.0
2014-Sep-13 08:33N 38°40' E 001°22'1312.9
2014-Sep-13 07:33N 38°52' E 001°26'2 0.9
2014-Sep-13 05:29N 38°54' E 001°26'0 0.0
2014-Sep-13 04:23N 38°54' E 001°26'0 0.0
2014-Sep-13 03:29N 38°54' E 001°26'0 0.0
2014-Sep-12 19:29N 38°54' E 001°26'0 0.0
2014-Sep-12 10:23N 38°54' E 001°26'0 0.0
2014-Sep-12 08:29N 38°54' E 001°26'1 0.5
2014-Sep-12 06:32N 38°54' E 001°27'1111.4
2014-Sep-12 05:33N 38°60' E 001°39'1413.6
2014-Sep-12 04:33N 39°08' E 001°54'1313.3
2014-Sep-12 03:33N 39°15' E 002°08'1313.3
2014-Sep-12 02:33N 39°22' E 002°22'1313.2
2014-Sep-12 01:33N 39°29' E 002°37'4 4.2
2014-Sep-12 00:33N 39°33' E 002°40'0 0.0
2014-Sep-11 23:33N 39°33' E 002°40'0 0.0
2014-Sep-11 22:33N 39°33' E 002°40'0 0.0
2014-Sep-11 21:33N 39°33' E 002°40'0 0.0
2014-Sep-11 20:33N 39°33' E 002°40'0 0.0
2014-Sep-11 19:33N 39°33' E 002°40'0 0.0
2014-Sep-11 18:33N 39°33' E 002°40'1 1.3
2014-Sep-11 17:34N 39°32' E 002°39'10 9.8
2014-Sep-11 16:33N 39°27' E 002°28'1312.7
2014-Sep-11 15:33N 39°37' E 002°18'1414.3
2014-Sep-11 14:33N 39°48' E 002°30'1414.2
2014-Sep-11 13:33N 39°58' E 002°43'1413.9
2014-Sep-11 12:33N 40°08' E 002°55'1413.9
2014-Sep-11 11:33N 40°19' E 003°07'1514.5
2014-Sep-11 10:33N 40°30' E 003°20'13214.4
2014-Sep-11 01:23N 42°04' E 005°22'1113.5
2014-Sep-11 00:33N 42°13' E 005°32'1514.4
2014-Sep-10 23:32N 42°24' E 005°44'1514.5
2014-Sep-10 22:29N 42°36' E 005°58'1314.4
2014-Sep-10 21:33N 42°45' E 006°11'1515.0
2014-Sep-10 20:32N 42°57' E 006°24'1414.6
2014-Sep-10 19:33N 43°06' E 006°39'1514.8
2014-Sep-10 18:34N 43°17' E 006°52'1514.8
2014-Sep-10 17:33N 43°28' E 007°06'1414.5
2014-Sep-10 16:33N 43°39' E 007°20'7 0.2
2014-Sep-09 02:12N 43°44' E 007°25'0 0.0
2014-Sep-08 01:21N 43°44' E 007°25'0 0.0
2014-Sep-07 16:27N 43°44' E 007°25'0 0.0
2014-Sep-06 23:29N 43°44' E 007°25'0 0.0
2014-Sep-06 14:14N 43°44' E 007°25'0 0.0
2014-Sep-06 13:32N 43°44' E 007°25'  

Dump ship's entire track history